This is the latest recevied weather packets stored in our database for station/object TG8AKV-17. If no packets are shown the sender has not sent any weather packets the latest 10 day(s).
| Time | Temp. | Humidity | Pressure | Rain* | Wind** | Luminosity | Snow |
|---|---|---|---|---|---|---|---|
| 1777411792 | 17.22° C | 91% | 1014 hPa | 0 mm | - | - | - |
| 1777411191 | 17.22° C | 90% | 1014 hPa | 0 mm | - | - | - |
| 1777410591 | 17.22° C | 89% | 1014 hPa | 0 mm | - | - | - |
| 1777409990 | 17.22° C | 88% | 1014 hPa | 0 mm | - | - | - |
| 1777409390 | 17.22° C | 87% | 1014 hPa | 0 mm | - | - | - |
| 1777408789 | 17.22° C | 86% | 1014 hPa | 0 mm | - | - | - |
| 1777408188 | 17.22° C | 83% | 1015 hPa | 0 mm | - | - | - |
| 1777407588 | 17.22° C | 83% | 1015 hPa | 0 mm | - | - | - |
| 1777406987 | 17.22° C | 83% | 1015 hPa | 0 mm | - | - | - |
| 1777406386 | 17.22° C | 83% | 1015 hPa | 0 mm | - | - | - |
| 1777405786 | 17.22° C | 83% | 1015 hPa | 0 mm | - | - | - |
| 1777405185 | 17.22° C | 82% | 1015 hPa | 0 mm | - | - | - |
| 1777404584 | 17.22° C | 80% | 1015 hPa | 0 mm | - | - | - |
| 1777403984 | 24.44° C | 51% | 1015 hPa | 0 mm | - | - | - |
| 1777403383 | 25° C | 41% | 1015 hPa | 0 mm | - | - | - |
| 1777402782 | 25° C | 41% | 1015 hPa | 0 mm | - | - | - |
| 1777402182 | 25° C | 41% | 1015 hPa | 0 mm | - | - | - |
| 1777401581 | 24.44° C | 43% | 1015 hPa | 0 mm | - | - | - |
| 1777400981 | 23.89° C | 44% | 1016 hPa | 0 mm | - | - | - |
| 1777400380 | 23.89° C | 44% | 1016 hPa | 0 mm | - | - | - |
| 1777399779 | 23.89° C | 44% | 1016 hPa | 0 mm | - | - | - |
| 1777399179 | 23.89° C | 44% | 1016 hPa | 0 mm | - | - | - |
| 1777398578 | 23.33° C | 46% | 1016 hPa | 0 mm | - | - | - |
| 1777397978 | 22.78° C | 51% | 1016 hPa | 0 mm | - | - | - |
| 1777397377 | 21.11° C | 61% | 1017 hPa | 0 mm | - | - | - |
* Rain latest hour (hover to see other rain measurements)
** Current wind speed in m/s (hover to see current wind gust speed)